Time;durP1;ratioP1;P1;durP2;ratioP2;P2;SDS_P1;SDS_P2;PMS_P1;PMS_P2;Temp;Humidity;BMP_temperature;BMP_pressure;BME280_temperature;BME280_humidity;BME280_pressure;Samples;Min_cycle;Max_cycle;Signal;HPM_P1;HPM_P2
2022/11/04 00:01:29;;;;;;;;;;;;;;;7.33;100.00;97740.09;5058454;28;19967;-88
2022/11/04 00:03:54;;;;;;;;;;;;;;;7.26;100.00;97734.09;5058699;28;19916;-88
2022/11/04 00:06:20;;;;;;;;;;;;;;;7.15;100.00;97740.75;5058733;28;19919;-87
2022/11/04 00:08:52;;;;;;;;;;;;;;;6.99;100.00;97744.59;5059134;28;19913;-88
2022/11/04 00:14:16;;;;;;;;;;;;;;;7.15;100.00;97754.59;5042118;28;19955;-88
2022/11/04 00:28:41;;;;;;;;;;;;;;;7.23;100.00;97771.84;5051706;28;19919;-86
2022/11/04 00:30:31;;;;;;;;;;;;;;;7.21;100.00;97794.75;5059403;28;20439;-87
2022/11/04 00:35:47;;;;;;;;;;;;;;;7.00;100.00;97814.84;5058202;28;19912;-88
2022/11/04 00:38:12;;;;;;;;;;;;;;;7.02;100.00;97824.25;5076230;28;20422;-86
2022/11/04 00:40:38;;;;;;;;;;;;;;;6.92;100.00;97817.66;5046734;28;20020;-88
2022/11/04 00:43:03;;;;;;;;;;;;;;;6.99;100.00;97815.84;5037385;28;20378;-88
2022/11/04 00:45:28;;;;;;;;;;;;;;;6.92;100.00;97807.22;5037415;28;19913;-87
2022/11/04 00:47:54;;;;;;;;;;;;;;;6.92;100.00;97817.66;5036781;28;19980;-87
2022/11/04 00:50:19;;;;;;;;;;;;;;;6.91;100.00;97826.47;5035546;28;19956;-90
2022/11/04 00:52:45;;;;;;;;;;;;;;;6.84;100.00;97825.66;5036142;28;19919;-87
2022/11/04 00:55:10;;;;;;;;;;;;;;;6.83;100.00;97830.09;5067208;28;19913;-86
2022/11/04 00:57:36;;;;;;;;;;;;;;;6.85;100.00;97837.69;5024805;28;20382;-87
2022/11/04 01:00:01;;;;;;;;;;;;;;;6.96;100.00;97833.69;5002829;28;20398;-88
2022/11/04 01:02:27;;;;;;;;;;;;;;;6.89;100.00;97840.72;5055952;28;19967;-88
2022/11/04 01:04:53;;;;;;;;;;;;;;;6.94;100.00;97846.94;5023299;28;19916;-88
2022/11/04 01:07:19;;;;;;;;;;;;;;;6.78;100.00;97849.94;5057003;28;19983;-87
2022/11/04 01:09:45;;;;;;;;;;;;;;;6.95;100.00;97861.59;5032226;28;19952;-88
2022/11/04 01:12:10;;;;;;;;;;;;;;;6.94;100.00;97865.22;5020089;28;20304;-87
2022/11/04 01:14:35;;;;;;;;;;;;;;;6.90;100.00;97860.59;5038316;28;19920;-88
2022/11/04 01:17:03;;;;;;;;;;;;;;;7.03;100.00;97865.00;5004003;28;19909;-87
2022/11/04 01:19:29;;;;;;;;;;;;;;;7.11;100.00;97873.44;5003543;28;19913;-87
2022/11/04 01:21:57;;;;;;;;;;;;;;;6.91;100.00;97877.84;5036905;28;20367;-89
2022/11/04 01:24:23;;;;;;;;;;;;;;;6.93;100.00;97884.47;5019068;28;19920;-87
2022/11/04 01:26:49;;;;;;;;;;;;;;;6.75;100.00;97882.44;5002410;28;20436;-87
2022/11/04 01:29:14;;;;;;;;;;;;;;;6.97;100.00;97880.47;5018801;28;19920;-87
2022/11/04 01:31:40;;;;;;;;;;;;;;;6.83;100.00;97892.69;5001955;28;19980;-89
2022/11/04 01:34:06;;;;;;;;;;;;;;;6.99;100.00;97890.72;5018410;28;19963;-87
2022/11/04 01:36:31;;;;;;;;;;;;;;;7.03;100.00;97902.34;5007066;28;20359;-87
2022/11/04 01:38:57;;;;;;;;;;;;;;;7.08;100.00;97901.75;5034335;28;19912;-87
2022/11/04 01:41:27;;;;;;;;;;;;;;;7.09;100.00;97905.97;5035361;28;20359;-86
2022/11/04 01:43:52;;;;;;;;;;;;;;;7.10;100.00;97904.97;5061976;28;19927;-86
2022/11/04 01:46:21;;;;;;;;;;;;;;;7.07;100.00;97902.72;5024161;28;19918;-87
2022/11/04 01:48:48;;;;;;;;;;;;;;;7.12;100.00;97922.00;5037085;28;19912;-89
2022/11/04 01:51:14;;;;;;;;;;;;;;;7.10;100.00;97928.44;5034201;28;19963;-86
2022/11/04 01:53:41;;;;;;;;;;;;;;;7.12;100.00;97948.09;5036177;28;19913;-88
2022/11/04 01:56:13;;;;;;;;;;;;;;;7.11;100.00;97948.31;5037470;28;19912;-87
2022/11/04 01:58:50;;;;;;;;;;;;;;;7.22;100.00;97947.72;5038765;28;19917;-86
2022/11/04 02:01:18;;;;;;;;;;;;;;;7.09;100.00;97947.72;5036577;28;19913;-86
2022/11/04 02:04:25;;;;;;;;;;;;;;;7.09;100.00;97953.72;5037520;28;19917;-87
2022/11/04 02:07:01;;;;;;;;;;;;;;;7.22;100.00;97952.94;5037693;28;19917;-87
2022/11/04 02:09:28;;;;;;;;;;;;;;;7.33;100.00;97953.34;5033022;28;19919;-86
2022/11/04 02:14:39;;;;;;;;;;;;;;;7.18;100.00;97948.34;5057486;28;19999;-85
2022/11/04 02:17:19;;;;;;;;;;;;;;;7.29;100.00;97953.75;5039717;28;19923;-86
2022/11/04 02:20:03;;;;;;;;;;;;;;;7.32;100.00;97951.75;5057115;28;19920;-88
2022/11/04 02:22:31;;;;;;;;;;;;;;;7.30;100.00;97949.31;5039522;28;20018;-85
2022/11/04 02:25:10;;;;;;;;;;;;;;;7.23;100.00;97958.97;5039428;28;19919;-86
2022/11/04 02:27:51;;;;;;;;;;;;;;;7.04;100.00;97960.53;5057358;28;20004;-86
2022/11/04 02:30:17;;;;;;;;;;;;;;;7.17;100.00;97955.34;5062830;28;19913;-87
2022/11/04 02:32:49;;;;;;;;;;;;;;;7.16;100.00;97953.75;5059128;28;19912;-85
2022/11/04 02:35:15;;;;;;;;;;;;;;;7.18;100.00;97954.34;5032622;28;20011;-86
2022/11/04 02:37:52;;;;;;;;;;;;;;;7.18;100.00;97954.34;5037082;28;19956;-86
2022/11/04 02:40:27;;;;;;;;;;;;;;;6.93;100.00;97954.09;5036886;28;19917;-86
2022/11/04 02:43:01;;;;;;;;;;;;;;;7.15;100.00;97947.69;5036995;28;19964;-86
2022/11/04 02:45:42;;;;;;;;;;;;;;;7.13;100.00;97964.59;5035797;28;19913;-85
2022/11/04 02:48:12;;;;;;;;;;;;;;;6.96;100.00;97958.91;5035563;28;19921;-86
2022/11/04 02:50:48;;;;;;;;;;;;;;;7.04;100.00;97974.41;5044534;28;19916;-86
2022/11/04 02:53:17;;;;;;;;;;;;;;;7.08;100.00;97977.44;5036777;28;19948;-87
2022/11/04 02:55:46;;;;;;;;;;;;;;;7.08;100.00;97980.03;5036849;28;19917;-85
2022/11/04 02:58:15;;;;;;;;;;;;;;;6.98;100.00;97983.81;5042338;28;20278;-86
2022/11/04 03:00:42;;;;;;;;;;;;;;;6.77;100.00;97995.19;5036438;28;20017;-84
2022/11/04 03:03:13;;;;;;;;;;;;;;;6.93;100.00;97996.66;5062246;28;19916;-85
2022/11/04 03:05:39;;;;;;;;;;;;;;;6.84;100.00;97998.63;5075703;28;19958;-86
2022/11/04 03:08:07;;;;;;;;;;;;;;;6.83;100.00;98001.44;5076063;28;19913;-88
2022/11/04 03:10:38;;;;;;;;;;;;;;;6.82;100.00;98003.25;5076591;28;19916;-86
2022/11/04 03:13:12;;;;;;;;;;;;;;;6.91;100.00;98009.09;5076113;28;20007;-87
2022/11/04 03:15:38;;;;;;;;;;;;;;;6.81;100.00;98008.63;5045961;28;19917;-85
2022/11/04 03:18:11;;;;;;;;;;;;;;;6.94;100.00;98015.72;5045457;28;19919;-86
2022/11/04 03:20:39;;;;;;;;;;;;;;;6.95;100.00;98009.47;5038253;28;20003;-85
2022/11/04 03:23:05;;;;;;;;;;;;;;;7.08;100.00;98013.97;5055877;28;19917;-85
2022/11/04 03:25:35;;;;;;;;;;;;;;;7.06;100.00;98018.53;5038342;28;19939;-86
2022/11/04 03:28:11;;;;;;;;;;;;;;;6.98;100.00;98030.78;5056080;28;20047;-85
2022/11/04 03:30:38;;;;;;;;;;;;;;;7.12;100.00;98029.00;5055931;28;20275;-84
2022/11/04 03:33:11;;;;;;;;;;;;;;;7.05;100.00;98040.41;5046439;28;19920;-86
2022/11/04 03:35:37;;;;;;;;;;;;;;;7.00;100.00;98043.63;5057915;28;20372;-85
2022/11/04 03:38:02;;;;;;;;;;;;;;;7.09;100.00;98037.22;5075627;28;19916;-84
2022/11/04 03:40:28;;;;;;;;;;;;;;;7.12;100.00;98038.66;5073343;28;19918;-85
2022/11/04 03:43:06;;;;;;;;;;;;;;;7.12;100.00;98052.50;5034388;28;20365;-88
2022/11/04 03:45:31;;;;;;;;;;;;;;;7.07;100.00;98054.06;5035493;28;19913;-85
2022/11/04 03:47:57;;;;;;;;;;;;;;;6.96;100.00;98074.53;5017770;28;19921;-83
2022/11/04 03:50:28;;;;;;;;;;;;;;;6.99;100.00;98068.91;5062281;28;19919;-85
2022/11/04 03:52:54;;;;;;;;;;;;;;;6.88;100.00;98074.69;5044707;28;19920;-84
2022/11/04 03:55:20;;;;;;;;;;;;;;;7.04;100.00;98077.94;5034159;28;19913;-87
2022/11/04 03:57:48;;;;;;;;;;;;;;;6.94;100.00;98081.75;5073355;28;20251;-85
2022/11/04 04:00:18;;;;;;;;;;;;;;;6.87;100.00;98078.28;5041479;28;20004;-87
2022/11/04 04:03:02;;;;;;;;;;;;;;;6.85;100.00;98088.09;5068204;28;19920;-87
2022/11/04 04:05:29;;;;;;;;;;;;;;;6.96;100.00;98078.94;5075380;28;19919;-84
2022/11/04 04:07:58;;;;;;;;;;;;;;;6.88;100.00;98081.72;5057152;28;19918;-84
2022/11/04 04:10:38;;;;;;;;;;;;;;;6.91;100.00;98089.16;5055323;28;19999;-85
2022/11/04 04:13:26;;;;;;;;;;;;;;;6.95;100.00;98093.78;5037880;28;19952;-85
2022/11/04 04:16:01;;;;;;;;;;;;;;;6.80;100.00;98098.31;5053536;28;19919;-86
2022/11/04 04:18:40;;;;;;;;;;;;;;;6.71;100.00;98095.88;5073800;28;20243;-85
2022/11/04 04:21:08;;;;;;;;;;;;;;;6.60;100.00;98106.06;5074778;28;20007;-85
2022/11/04 04:29:05;;;;;;;;;;;;;;;6.57;100.00;98121.06;5042912;28;20366;-85
2022/11/04 04:31:51;;;;;;;;;;;;;;;6.74;100.00;98122.56;5037471;28;19916;-85
2022/11/04 04:34:18;;;;;;;;;;;;;;;6.60;100.00;98127.72;5036723;28;19916;-85
2022/11/04 04:36:50;;;;;;;;;;;;;;;6.63;100.00;98135.13;5057945;28;20014;-86
2022/11/04 04:44:58;;;;;;;;;;;;;;;6.62;100.00;98156.22;5053382;28;19919;-86
2022/11/04 04:47:25;;;;;;;;;;;;;;;6.71;100.00;98161.09;5073777;28;19916;-86
2022/11/04 04:49:53;;;;;;;;;;;;;;;6.63;100.00;98165.66;5057217;28;19916;-85
2022/11/04 04:52:19;;;;;;;;;;;;;;;6.54;100.00;98170.19;5070827;28;19912;-84
2022/11/04 04:54:44;;;;;;;;;;;;;;;6.57;100.00;98177.63;5035606;28;20370;-85
2022/11/04 04:57:10;;;;;;;;;;;;;;;6.66;100.00;98179.09;5047272;28;20274;-85
2022/11/04 04:59:35;;;;;;;;;;;;;;;6.51;100.00;98192.22;5045945;28;20313;-85
2022/11/04 05:02:01;;;;;;;;;;;;;;;6.43;100.00;98189.78;5068696;28;20346;-84
2022/11/04 05:04:26;;;;;;;;;;;;;;;6.47;100.00;98190.19;5021090;28;19960;-84
2022/11/04 05:06:52;;;;;;;;;;;;;;;6.50;100.00;98201.03;5052950;28;19923;-85
2022/11/04 05:09:17;;;;;;;;;;;;;;;6.50;100.00;98192.44;5064040;28;20053;-84
2022/11/04 05:11:43;;;;;;;;;;;;;;;6.50;100.00;98202.88;5074173;28;19919;-86
2022/11/04 05:14:08;;;;;;;;;;;;;;;6.45;100.00;98208.63;5073940;28;19916;-85
2022/11/04 05:16:34;;;;;;;;;;;;;;;6.53;100.00;98223.34;5052122;28;19991;-86
2022/11/04 05:18:59;;;;;;;;;;;;;;;6.55;100.00;98235.19;5036761;28;19916;-87
2022/11/04 05:21:24;;;;;;;;;;;;;;;6.49;100.00;98238.53;5034081;28;20000;-87
2022/11/04 05:23:50;;;;;;;;;;;;;;;6.46;100.00;98240.72;5032649;28;19921;-86
2022/11/04 05:26:16;;;;;;;;;;;;;;;6.42;100.00;98250.72;5033206;28;19978;-86
2022/11/04 05:28:41;;;;;;;;;;;;;;;6.48;100.00;98254.34;5036457;28;19920;-84
2022/11/04 05:31:07;;;;;;;;;;;;;;;6.32;100.00;98256.25;5050463;28;19912;-86
2022/11/04 05:33:32;;;;;;;;;;;;;;;6.47;100.00;98256.19;5060114;28;20357;-86
2022/11/04 05:36:04;;;;;;;;;;;;;;;6.58;100.00;98267.91;5078061;28;20391;-84
2022/11/04 05:38:30;;;;;;;;;;;;;;;6.59;100.00;98260.91;5051396;28;20332;-85
2022/11/04 05:40:59;;;;;;;;;;;;;;;6.53;100.00;98267.66;5059888;28;20008;-84
2022/11/04 05:43:24;;;;;;;;;;;;;;;6.59;100.00;98271.34;5048378;28;19924;-84
2022/11/04 05:45:50;;;;;;;;;;;;;;;6.45;100.00;98281.63;5042900;28;19917;-85
2022/11/04 05:48:15;;;;;;;;;;;;;;;6.61;100.00;98284.97;5051715;28;19924;-85
2022/11/04 05:50:41;;;;;;;;;;;;;;;6.68;100.00;98288.44;5036454;28;19913;-85
2022/11/04 05:53:07;;;;;;;;;;;;;;;6.76;100.00;98292.72;5073204;28;19912;-86
2022/11/04 05:55:33;;;;;;;;;;;;;;;6.65;100.00;98296.66;5057496;28;19912;-86
2022/11/04 05:57:58;;;;;;;;;;;;;;;6.78;100.00;98290.72;5036422;28;19913;-85
2022/11/04 06:00:24;;;;;;;;;;;;;;;6.70;100.00;98302.91;5069526;28;19916;-85
2022/11/04 06:02:50;;;;;;;;;;;;;;;6.64;100.00;98298.44;5060343;28;20374;-87
2022/11/04 06:05:15;;;;;;;;;;;;;;;6.67;100.00;98302.47;5077539;28;19912;-85
2022/11/04 06:07:41;;;;;;;;;;;;;;;6.65;100.00;98301.88;5076173;28;19919;-85
2022/11/04 06:10:08;;;;;;;;;;;;;;;6.60;100.00;98306.84;5052330;28;19913;-85
2022/11/04 06:12:33;;;;;;;;;;;;;;;6.55;100.00;98302.97;5051487;28;19939;-85
2022/11/04 06:14:59;;;;;;;;;;;;;;;6.57;100.00;98305.41;5048640;28;19912;-87
2022/11/04 06:17:24;;;;;;;;;;;;;;;6.45;100.00;98305.09;5053894;28;19919;-86
2022/11/04 06:19:49;;;;;;;;;;;;;;;6.42;100.00;98311.47;5036972;28;20070;-85
2022/11/04 06:22:16;;;;;;;;;;;;;;;6.42;100.00;98314.09;5037024;28;19917;-86
2022/11/04 06:24:42;;;;;;;;;;;;;;;6.35;100.00;98328.84;5037345;28;19916;-85
2022/11/04 06:27:08;;;;;;;;;;;;;;;6.29;100.00;98335.59;5037279;28;20385;-87
2022/11/04 06:29:38;;;;;;;;;;;;;;;6.24;100.00;98339.75;5035607;28;19920;-83
2022/11/04 06:32:04;;;;;;;;;;;;;;;6.20;100.00;98341.13;5041080;28;19935;-85
2022/11/04 06:34:30;;;;;;;;;;;;;;;6.25;100.00;98342.19;5076669;28;20007;-84
2022/11/04 06:36:56;;;;;;;;;;;;;;;6.21;100.00;98355.75;5058761;28;19912;-84
2022/11/04 06:39:21;;;;;;;;;;;;;;;6.06;100.00;98351.38;5074477;28;19919;-84
2022/11/04 06:41:47;;;;;;;;;;;;;;;5.92;100.00;98360.00;5075297;28;19912;-85
2022/11/04 06:44:12;;;;;;;;;;;;;;;5.99;100.00;98355.66;5076762;28;19920;-84
2022/11/04 06:46:39;;;;;;;;;;;;;;;6.10;100.00;98362.25;5073338;28;20401;-84
2022/11/04 06:49:06;;;;;;;;;;;;;;;6.12;100.00;98371.50;5055684;28;19913;-84
2022/11/04 06:51:32;;;;;;;;;;;;;;;6.19;100.00;98375.97;5035911;28;20431;-84
2022/11/04 06:53:57;;;;;;;;;;;;;;;6.17;100.00;98388.38;5033773;28;19966;-84
2022/11/04 06:56:23;;;;;;;;;;;;;;;6.22;100.00;98380.81;5075990;28;19912;-84
2022/11/04 06:58:49;;;;;;;;;;;;;;;6.17;100.00;98391.00;5064531;28;19912;-86
2022/11/04 07:01:15;;;;;;;;;;;;;;;6.13;100.00;98388.75;5062515;28;19920;-84
2022/11/04 07:03:41;;;;;;;;;;;;;;;6.22;100.00;98404.28;5069291;28;19981;-85
2022/11/04 07:06:07;;;;;;;;;;;;;;;6.29;100.00;98392.16;5072763;28;19912;-83
2022/11/04 07:08:32;;;;;;;;;;;;;;;6.35;100.00;98404.44;5057855;28;19916;-84
2022/11/04 07:10:57;;;;;;;;;;;;;;;6.41;100.00;98405.53;5075850;28;19939;-84
2022/11/04 07:13:23;;;;;;;;;;;;;;;6.18;100.00;98398.63;5041505;28;19924;-84
2022/11/04 07:15:48;;;;;;;;;;;;;;;6.22;100.00;98401.66;5058633;28;19920;-82
2022/11/04 07:18:14;;;;;;;;;;;;;;;6.45;100.00;98401.56;5061599;28;19963;-84
2022/11/04 07:20:40;;;;;;;;;;;;;;;6.45;100.00;98408.56;5050663;28;19913;-84
2022/11/04 07:23:05;;;;;;;;;;;;;;;6.51;100.00;98402.63;5056428;28;20285;-83
2022/11/04 07:25:31;;;;;;;;;;;;;;;6.50;100.00;98406.22;5042092;28;19916;-85
2022/11/04 07:27:56;;;;;;;;;;;;;;;6.59;100.00;98420.75;5055666;28;19912;-85
2022/11/04 07:30:22;;;;;;;;;;;;;;;6.49;100.00;98417.66;5039642;28;19959;-85
2022/11/04 07:32:48;;;;;;;;;;;;;;;6.64;100.00;98430.66;5056091;28;19909;-85
2022/11/04 07:35:13;;;;;;;;;;;;;;;6.54;100.00;98430.94;5029593;28;19916;-89
2022/11/04 07:37:39;;;;;;;;;;;;;;;6.58;100.00;98434.78;5043382;28;20003;-88
2022/11/04 07:40:04;;;;;;;;;;;;;;;6.76;100.00;98436.97;5039978;28;19909;-87
2022/11/04 07:42:31;;;;;;;;;;;;;;;6.56;100.00;98436.78;5033067;28;19958;-87
2022/11/04 07:44:56;;;;;;;;;;;;;;;6.60;100.00;98445.84;5051830;28;19913;-90
2022/11/04 07:47:22;;;;;;;;;;;;;;;6.75;100.00;98447.59;5040266;28;19928;-88
2022/11/04 07:49:47;;;;;;;;;;;;;;;6.94;100.00;98440.97;5024057;28;20011;-87
2022/11/04 07:52:12;;;;;;;;;;;;;;;6.75;100.00;98443.19;5058293;28;20385;-88
2022/11/04 07:54:38;;;;;;;;;;;;;;;7.00;100.00;98451.47;5041186;28;19912;-89
2022/11/04 07:57:03;;;;;;;;;;;;;;;7.09;100.00;98449.56;5040447;28;19913;-87
2022/11/04 07:59:29;;;;;;;;;;;;;;;7.23;100.00;98455.69;5057443;28;19912;-90
2022/11/04 08:01:55;;;;;;;;;;;;;;;7.22;100.00;98448.88;5024246;28;19920;-87
2022/11/04 08:04:20;;;;;;;;;;;;;;;6.97;100.00;98454.47;5051800;28;20000;-88
2022/11/04 08:06:46;;;;;;;;;;;;;;;7.15;100.00;98453.22;5054586;28;19913;-85
2022/11/04 08:09:11;;;;;;;;;;;;;;;7.32;100.00;98455.59;5055306;28;19912;-86
2022/11/04 08:11:37;;;;;;;;;;;;;;;7.32;100.00;98460.81;5054361;28;19963;-88
2022/11/04 08:14:03;;;;;;;;;;;;;;;7.17;100.00;98466.91;5038134;28;19923;-86
2022/11/04 08:16:28;;;;;;;;;;;;;;;7.12;100.00;98464.03;5035489;28;20427;-87
2022/11/04 08:18:54;;;;;;;;;;;;;;;7.10;100.00;98466.03;5065094;28;19912;-88
2022/11/04 08:21:20;;;;;;;;;;;;;;;7.20;100.00;98463.91;5079433;28;19918;-85
2022/11/04 08:23:46;;;;;;;;;;;;;;;7.07;100.00;98474.22;5074648;28;19917;-85
2022/11/04 08:26:16;;;;;;;;;;;;;;;7.08;100.00;98473.25;5074518;28;20010;-85
2022/11/04 08:28:41;;;;;;;;;;;;;;;7.48;100.00;98481.44;5074526;28;19913;-86
2022/11/04 08:31:09;;;;;;;;;;;;;;;7.45;100.00;98492.25;5074760;28;20267;-84
2022/11/04 08:33:35;;;;;;;;;;;;;;;7.52;100.00;98495.72;5040644;28;19919;-86
2022/11/04 08:36:05;;;;;;;;;;;;;;;7.73;100.00;98496.69;5045185;28;20251;-83
2022/11/04 08:38:30;;;;;;;;;;;;;;;7.80;100.00;98502.78;5039727;28;19920;-85
2022/11/04 08:41:05;;;;;;;;;;;;;;;7.84;100.00;98506.63;5074761;28;19916;-85
2022/11/04 08:43:32;;;;;;;;;;;;;;;7.84;100.00;98509.22;5056594;28;19979;-85
2022/11/04 08:45:58;;;;;;;;;;;;;;;7.78;100.00;98507.38;5056290;28;19912;-84
2022/11/04 08:48:24;;;;;;;;;;;;;;;8.04;100.00;98500.72;5056508;28;19918;-85
2022/11/04 08:50:53;;;;;;;;;;;;;;;7.98;100.00;98504.09;5056093;28;19912;-84
2022/11/04 08:53:22;;;;;;;;;;;;;;;7.91;100.00;98513.72;5057531;28;19917;-85
2022/11/04 08:55:47;;;;;;;;;;;;;;;7.98;100.00;98506.72;5016476;28;19913;-85
2022/11/04 08:58:13;;;;;;;;;;;;;;;8.14;100.00;98511.66;5034388;28;19998;-87
2022/11/04 09:00:38;;;;;;;;;;;;;;;8.34;100.00;98510.97;5018027;28;19913;-86
2022/11/04 09:03:04;;;;;;;;;;;;;;;8.30;100.00;98504.53;5019799;28;19963;-85
2022/11/04 09:05:29;;;;;;;;;;;;;;;8.53;100.00;98511.31;5056454;28;19920;-87
2022/11/04 09:07:55;;;;;;;;;;;;;;;8.64;100.00;98513.34;5042746;28;19913;-86
2022/11/04 09:10:21;;;;;;;;;;;;;;;8.48;100.00;98518.91;5027918;28;19912;-85
2022/11/04 09:12:47;;;;;;;;;;;;;;;8.45;100.00;98522.69;5042679;28;20345;-87
2022/11/04 09:15:13;;;;;;;;;;;;;;;8.64;100.00;98517.78;5071094;28;19969;-87
2022/11/04 09:17:38;;;;;;;;;;;;;;;8.43;100.00;98530.72;5058381;28;19916;-87
2022/11/04 09:20:04;;;;;;;;;;;;;;;8.53;100.00;98533.00;5042855;28;19916;-88
2022/11/04 09:22:30;;;;;;;;;;;;;;;8.84;100.00;98534.38;5059236;28;20021;-88
2022/11/04 09:24:56;;;;;;;;;;;;;;;8.89;100.00;98533.78;5043178;28;20357;-87
2022/11/04 09:27:21;;;;;;;;;;;;;;;8.73;100.00;98528.91;5074810;28;19919;-87
2022/11/04 09:29:47;;;;;;;;;;;;;;;8.89;100.00;98528.56;5041589;28;19962;-85
2022/11/04 09:32:13;;;;;;;;;;;;;;;8.89;100.00;98531.19;5057839;28;19944;-86
2022/11/04 09:34:38;;;;;;;;;;;;;;;8.84;100.00;98534.38;5057665;28;20328;-86
2022/11/04 09:37:06;;;;;;;;;;;;;;;8.75;100.00;98542.59;5057233;28;20381;-86
2022/11/04 09:39:31;;;;;;;;;;;;;;;8.99;100.00;98542.06;5057065;28;19923;-88
2022/11/04 09:42:00;;;;;;;;;;;;;;;9.03;100.00;98545.13;5075430;28;19918;-87
2022/11/04 09:44:39;;;;;;;;;;;;;;;8.95;100.00;98535.63;5074919;28;19913;-88
2022/11/04 09:47:08;;;;;;;;;;;;;;;8.91;100.00;98536.19;5053644;28;19946;-88
2022/11/04 09:49:37;;;;;;;;;;;;;;;8.73;100.00;98547.22;5053747;28;19913;-87
2022/11/04 09:52:07;;;;;;;;;;;;;;;9.25;100.00;98540.56;5054071;28;20358;-88
2022/11/04 09:54:37;;;;;;;;;;;;;;;9.00;100.00;98546.31;5037068;28;19916;-87
2022/11/04 09:57:03;;;;;;;;;;;;;;;8.94;100.00;98547.09;5053740;28;20007;-85
2022/11/04 09:59:32;;;;;;;;;;;;;;;9.12;100.00;98545.75;5042897;28;19912;-87
2022/11/04 10:02:01;;;;;;;;;;;;;;;9.09;100.00;98546.16;5034635;28;19935;-86
2022/11/04 10:04:45;;;;;;;;;;;;;;;9.10;100.00;98561.63;5026875;28;19921;-85
2022/11/04 10:07:24;;;;;;;;;;;;;;;9.15;100.00;98561.06;5030807;28;20027;-85
2022/11/04 10:09:53;;;;;;;;;;;;;;;9.42;100.00;98566.34;5034303;28;19914;-85
2022/11/04 10:12:20;;;;;;;;;;;;;;;9.52;100.00;98566.78;5013059;28;19921;-86
2022/11/04 10:14:46;;;;;;;;;;;;;;;9.57;100.00;98559.13;5016082;28;20401;-85
2022/11/04 10:17:18;;;;;;;;;;;;;;;9.64;100.00;98574.06;5054264;28;19916;-85
2022/11/04 10:20:14;;;;;;;;;;;;;;;9.62;100.00;98578.69;5039252;28;20381;-85
2022/11/04 10:23:01;;;;;;;;;;;;;;;9.81;100.00;98575.28;5055825;28;19917;-86
2022/11/04 10:25:33;;;;;;;;;;;;;;;9.81;100.00;98590.22;5056162;28;19916;-85
2022/11/04 10:28:02;;;;;;;;;;;;;;;10.03;100.00;98588.22;5053300;28;20286;-85
2022/11/04 10:30:30;;;;;;;;;;;;;;;10.07;100.00;98594.66;5056075;28;19913;-85
2022/11/04 10:33:15;;;;;;;;;;;;;;;10.15;100.00;98601.53;5072212;28;19916;-85
2022/11/04 10:35:46;;;;;;;;;;;;;;;10.04;100.00;98608.19;5057374;28;19913;-88
2022/11/04 10:38:12;;;;;;;;;;;;;;;10.09;100.00;98621.47;5055461;28;19909;-88
2022/11/04 10:40:38;;;;;;;;;;;;;;;10.04;100.00;98605.56;5055870;28;19913;-87
2022/11/04 10:43:08;;;;;;;;;;;;;;;10.11;100.00;98619.47;5045619;28;19917;-85
2022/11/04 10:45:39;;;;;;;;;;;;;;;10.28;100.00;98619.06;5056982;28;19913;-86
2022/11/04 10:48:12;;;;;;;;;;;;;;;10.19;100.00;98617.63;5045925;28;19917;-89
2022/11/04 10:50:41;;;;;;;;;;;;;;;10.34;100.00;98615.63;5022414;28;19913;-87
2022/11/04 10:53:17;;;;;;;;;;;;;;;10.41;100.00;98623.50;5028211;28;20371;-87
2022/11/04 10:55:46;;;;;;;;;;;;;;;10.48;100.00;98621.69;5019555;28;19917;-85
2022/11/04 10:58:13;;;;;;;;;;;;;;;10.51;100.00;98623.88;5036894;28;20406;-88
2022/11/04 11:00:40;;;;;;;;;;;;;;;10.49;100.00;98625.91;5013993;28;19963;-90
2022/11/04 11:03:25;;;;;;;;;;;;;;;10.45;100.00;98635.22;5017816;28;19917;-89
2022/11/04 11:05:51;;;;;;;;;;;;;;;10.43;100.00;98624.13;5020252;28;19921;-88
2022/11/04 11:08:46;;;;;;;;;;;;;;;10.36;100.00;98650.31;5019253;28;19920;-87
2022/11/04 11:11:14;;;;;;;;;;;;;;;10.40;100.00;98643.69;5001231;28;20321;-89
2022/11/04 11:13:45;;;;;;;;;;;;;;;10.23;100.00;98639.84;5031592;28;19956;-88
2022/11/04 11:16:19;;;;;;;;;;;;;;;10.50;100.00;98631.97;4999470;28;19914;-90
2022/11/04 11:19:04;;;;;;;;;;;;;;;10.49;100.00;98643.50;5031250;28;19935;-87
2022/11/04 11:21:41;;;;;;;;;;;;;;;10.62;100.00;98650.53;5001917;28;19944;-88
2022/11/04 11:24:15;;;;;;;;;;;;;;;10.62;100.00;98638.25;5024710;28;20273;-86
2022/11/04 11:26:46;;;;;;;;;;;;;;;10.53;100.00;98644.69;5030030;28;19932;-87
2022/11/04 11:29:17;;;;;;;;;;;;;;;10.66;100.00;98639.44;5034612;28;20286;-86
2022/11/04 11:31:42;;;;;;;;;;;;;;;10.71;100.00;98647.50;5017294;28;19917;-86
2022/11/04 11:34:17;;;;;;;;;;;;;;;10.74;100.00;98645.47;5023689;28;19917;-85
2022/11/04 11:36:43;;;;;;;;;;;;;;;10.65;100.00;98664.06;5031785;28;19917;-86
2022/11/04 11:39:12;;;;;;;;;;;;;;;10.37;100.00;98657.19;5017631;28;19991;-86
2022/11/04 11:41:57;;;;;;;;;;;;;;;10.63;100.00;98662.66;5023126;28;19913;-86
2022/11/04 11:44:27;;;;;;;;;;;;;;;10.46;100.00;98668.31;5024478;28;19925;-88
2022/11/04 11:46:56;;;;;;;;;;;;;;;10.36;100.00;98660.03;5018376;28;19957;-87
2022/11/04 11:49:30;;;;;;;;;;;;;;;10.56;100.00;98662.66;5010357;28;20351;-86
2022/11/04 11:52:15;;;;;;;;;;;;;;;10.38;100.00;98664.03;5003598;28;19906;-86
2022/11/04 11:54:46;;;;;;;;;;;;;;;10.60;100.00;98660.44;5016353;28;20330;-86
2022/11/04 11:57:23;;;;;;;;;;;;;;;10.57;100.00;98677.38;5016180;28;19920;-86
2022/11/04 11:59:56;;;;;;;;;;;;;;;10.53;100.00;98676.19;5006195;28;19914;-87
2022/11/04 12:02:31;;;;;;;;;;;;;;;10.49;100.00;98664.47;4996387;28;19921;-86
2022/11/04 12:04:57;;;;;;;;;;;;;;;10.62;100.00;98680.22;5006100;28;19937;-86
2022/11/04 12:07:28;;;;;;;;;;;;;;;10.48;100.00;98684.66;5005674;28;19918;-87
2022/11/04 12:10:05;;;;;;;;;;;;;;;10.49;100.00;98680.22;5001982;28;20286;-86
2022/11/04 12:12:31;;;;;;;;;;;;;;;10.86;100.00;98685.84;5000554;28;20425;-87
2022/11/04 12:15:02;;;;;;;;;;;;;;;10.75;100.00;98691.72;5011629;28;19921;-86
2022/11/04 12:17:47;;;;;;;;;;;;;;;10.75;100.00;98695.16;5006055;28;19913;-87
2022/11/04 12:20:28;;;;;;;;;;;;;;;10.83;100.00;98696.75;5014038;28;19913;-86
2022/11/04 12:23:09;;;;;;;;;;;;;;;10.70;100.00;98687.06;5014367;28;19921;-88
2022/11/04 12:25:45;;;;;;;;;;;;;;;10.99;100.00;98691.03;5013943;28;19913;-87
2022/11/04 12:28:21;;;;;;;;;;;;;;;10.53;100.00;98684.88;5015500;28;19917;-87
2022/11/04 12:30:46;;;;;;;;;;;;;;;10.82;100.00;98679.41;4997687;28;19918;-86
2022/11/04 12:33:22;;;;;;;;;;;;;;;10.85;100.00;98671.09;4981495;28;20371;-86
2022/11/04 12:36:00;;;;;;;;;;;;;;;10.80;100.00;98673.50;5010779;28;19932;-86
2022/11/04 12:38:35;;;;;;;;;;;;;;;10.71;100.00;98679.00;4989619;28;19949;-86
2022/11/04 12:41:04;;;;;;;;;;;;;;;10.60;100.00;98687.47;4995320;28;20315;-87
2022/11/04 12:43:30;;;;;;;;;;;;;;;10.61;100.00;98673.38;5006133;28;19918;-86
2022/11/04 12:45:55;;;;;;;;;;;;;;;10.53;100.00;98676.19;5002784;28;20443;-86
2022/11/04 12:48:31;;;;;;;;;;;;;;;10.64;100.00;98680.00;5030834;28;19920;-86
2022/11/04 12:51:19;;;;;;;;;;;;;;;10.87;100.00;98676.94;5045526;28;20430;-85
2022/11/04 12:54:15;;;;;;;;;;;;;;;10.87;100.00;98666.44;5033716;28;19924;-85
2022/11/04 12:56:41;;;;;;;;;;;;;;;10.95;100.00;98676.72;5066772;28;20289;-86
2022/11/04 12:59:07;;;;;;;;;;;;;;;11.24;100.00;98686.94;5056746;28;19919;-85
2022/11/04 13:01:36;;;;;;;;;;;;;;;11.27;100.00;98700.47;5067024;28;20436;-87
2022/11/04 13:04:19;;;;;;;;;;;;;;;10.85;100.00;98700.78;5040903;28;19917;-85
2022/11/04 13:06:47;;;;;;;;;;;;;;;10.56;100.00;98694.97;5037631;28;19913;-85
2022/11/04 13:09:17;;;;;;;;;;;;;;;10.76;100.00;98696.75;5048035;28;19919;-85
2022/11/04 13:12:00;;;;;;;;;;;;;;;11.18;100.00;98693.03;5057089;28;19939;-86
2022/11/04 13:14:31;;;;;;;;;;;;;;;11.02;100.00;98699.56;5042446;28;20417;-86
2022/11/04 13:16:58;;;;;;;;;;;;;;;11.25;100.00;98705.16;5034806;28;20286;-86
2022/11/04 13:19:29;;;;;;;;;;;;;;;11.49;100.00;98700.19;5019414;28;20282;-88
2022/11/04 13:21:56;;;;;;;;;;;;;;;11.66;100.00;98691.84;5047531;28;19913;-86
2022/11/04 13:24:30;;;;;;;;;;;;;;;11.41;100.00;98693.34;5044653;28;20432;-85
2022/11/04 13:27:00;;;;;;;;;;;;;;;11.43;100.00;98690.53;5039627;28;19995;-85